Time;durP1;ratioP1;P1;durP2;ratioP2;P2;SDS_P1;SDS_P2;PMS_P1;PMS_P2;Temp;Humidity;BMP_temperature;BMP_pressure;BME280_temperature;BME280_humidity;BME280_pressure;Samples;Min_cycle;Max_cycle;Signal;HPM_P1;HPM_P2
2023/02/10 00:01:24;;;;;;;29.42;19.38;;;;;;;-4.88;100.00;97565.28;5048557;28;24435;-74
2023/02/10 00:03:52;;;;;;;28.75;17.83;;;;;;;-4.76;100.00;97555.47;5042600;28;24438;-73
2023/02/10 00:06:20;;;;;;;21.67;17.40;;;;;;;-4.78;100.00;97561.31;5048118;28;24800;-73
2023/02/10 00:08:47;;;;;;;23.80;16.77;;;;;;;-4.73;100.00;97562.31;5049095;28;24439;-73
2023/02/10 00:11:15;;;;;;;26.25;17.55;;;;;;;-4.69;100.00;97559.88;5053753;28;24995;-73
2023/02/10 00:13:42;;;;;;;27.75;18.30;;;;;;;-4.78;100.00;97563.84;5051276;28;25035;-72
2023/02/10 00:16:12;;;;;;;27.02;17.33;;;;;;;-5.05;100.00;97552.19;5052155;28;24443;-72
2023/02/10 00:18:38;;;;;;;26.98;18.98;;;;;;;-5.14;100.00;97554.50;5043324;28;24933;-72
2023/02/10 00:21:11;;;;;;;23.97;16.73;;;;;;;-5.19;100.00;97558.53;5042238;28;24522;-72
2023/02/10 00:23:38;;;;;;;21.50;16.80;;;;;;;-5.24;100.00;97560.94;5046862;28;24971;-73
2023/02/10 00:26:05;;;;;;;22.52;16.23;;;;;;;-5.22;100.00;97564.38;5045811;28;24784;-73
2023/02/10 00:28:33;;;;;;;24.67;16.47;;;;;;;-5.14;100.00;97564.59;5051569;28;24564;-73
2023/02/10 00:30:59;;;;;;;23.92;17.40;;;;;;;-5.05;100.00;97562.31;5037509;28;24991;-73
2023/02/10 00:33:26;;;;;;;27.07;17.73;;;;;;;-5.06;100.00;97554.69;5036837;28;24439;-73
2023/02/10 00:35:52;;;;;;;24.45;17.50;;;;;;;-5.11;100.00;97563.00;5038154;28;24455;-72
2023/02/10 00:38:20;;;;;;;22.30;15.88;;;;;;;-5.05;100.00;97559.78;5049679;28;24446;-72
2023/02/10 00:40:46;;;;;;;23.53;16.47;;;;;;;-5.01;100.00;97565.75;5039684;28;24438;-73
2023/02/10 00:43:13;;;;;;;20.73;16.00;;;;;;;-5.19;100.00;97573.69;5043537;28;24438;-73
2023/02/10 00:45:39;;;;;;;22.85;17.25;;;;;;;-5.28;100.00;97581.03;5038851;28;24428;-73
2023/02/10 00:48:06;;;;;;;24.20;16.50;;;;;;;-5.37;100.00;97582.50;5040081;28;24443;-74
2023/02/10 00:50:32;;;;;;;23.08;17.08;;;;;;;-5.42;100.00;97583.16;5038675;28;24434;-73
2023/02/10 00:52:59;;;;;;;21.77;15.93;;;;;;;-5.32;100.00;97580.09;5046840;28;24991;-72
2023/02/10 00:55:26;;;;;;;23.70;17.02;;;;;;;-5.15;100.00;97573.00;5044621;28;24994;-72
2023/02/10 00:57:53;;;;;;;34.13;19.20;;;;;;;-5.19;100.00;97579.63;5043169;28;24851;-74
2023/02/10 01:00:20;;;;;;;26.75;17.85;;;;;;;-5.34;100.00;97576.66;5045649;28;24796;-73
2023/02/10 01:02:46;;;;;;;27.08;18.38;;;;;;;-5.29;100.00;97582.72;5056119;28;24446;-73
2023/02/10 01:05:13;;;;;;;24.77;17.85;;;;;;;-5.21;100.00;97575.34;5051609;28;24427;-73
2023/02/10 01:07:39;;;;;;;35.58;19.85;;;;;;;-5.25;100.00;97576.94;5049387;28;24451;-73
2023/02/10 01:10:06;;;;;;;31.23;19.50;;;;;;;-5.36;100.00;97571.56;5042610;28;24431;-73
2023/02/10 01:12:33;;;;;;;30.13;18.80;;;;;;;-5.57;100.00;97575.16;5049713;28;24462;-73
2023/02/10 01:15:00;;;;;;;30.10;18.90;;;;;;;-5.59;100.00;97575.13;5047919;28;24451;-73
2023/02/10 01:17:26;;;;;;;22.55;17.73;;;;;;;-5.60;100.00;97579.31;5048055;28;24443;-74
2023/02/10 01:19:53;;;;;;;26.63;17.45;;;;;;;-5.51;100.00;97578.72;5044408;28;24521;-73
2023/02/10 01:22:19;;;;;;;24.10;17.60;;;;;;;-5.46;100.00;97586.41;5046980;28;24439;-73
2023/02/10 01:24:46;;;;;;;21.08;16.60;;;;;;;-5.45;100.00;97596.56;5045151;28;24438;-73
2023/02/10 01:27:12;;;;;;;26.42;16.42;;;;;;;-5.39;100.00;97593.34;5046308;28;24443;-73
2023/02/10 01:29:40;;;;;;;25.45;17.85;;;;;;;-5.33;100.00;97597.75;5043141;28;24450;-73
2023/02/10 01:32:07;;;;;;;38.05;24.10;;;;;;;-5.37;100.00;97589.22;5042738;28;24443;-73
2023/02/10 01:34:33;;;;;;;37.25;24.50;;;;;;;-5.45;100.00;97588.13;5039804;28;24458;-73
2023/02/10 01:36:59;;;;;;;33.17;24.02;;;;;;;-5.36;100.00;97593.44;5037594;28;24444;-73
2023/02/10 01:39:26;;;;;;;32.35;24.35;;;;;;;-5.46;100.00;97592.31;5041496;28;24435;-73
2023/02/10 01:41:52;;;;;;;33.35;22.85;;;;;;;-5.56;100.00;97590.38;5045663;28;24435;-73
2023/02/10 01:45:22;;;;;;;32.70;21.73;;;;;;;-5.65;100.00;97595.13;5044301;28;25011;-73
2023/02/10 01:47:52;;;;;;;34.65;20.27;;;;;;;-5.96;100.00;97604.34;4960165;28;24445;-73
2023/02/10 01:50:22;;;;;;;23.52;17.27;;;;;;;-5.80;100.00;97603.09;4963231;28;24440;-72
2023/02/10 01:52:50;;;;;;;22.40;17.37;;;;;;;-5.70;100.00;97605.09;5018319;28;24440;-72
2023/02/10 01:55:18;;;;;;;29.95;18.75;;;;;;;-5.63;100.00;97594.38;5045545;28;24447;-73
2023/02/10 01:57:46;;;;;;;26.13;18.77;;;;;;;-5.64;100.00;97601.88;5039600;28;24450;-72
2023/02/10 02:00:16;;;;;;;23.58;18.27;;;;;;;-5.60;100.00;97612.13;5051099;28;24824;-72
2023/02/10 02:02:44;;;;;;;28.25;20.83;;;;;;;-5.57;100.00;97608.81;5044328;28;24466;-72
2023/02/10 02:05:23;;;;;;;28.63;19.10;;;;;;;-5.57;100.00;97615.53;5043982;28;24479;-72
2023/02/10 02:07:50;;;;;;;26.25;19.02;;;;;;;-5.66;100.00;97619.50;5042904;28;24447;-72
2023/02/10 02:10:17;;;;;;;29.10;20.20;;;;;;;-5.69;100.00;97626.13;5045395;28;24669;-73
2023/02/10 02:12:56;;;;;;;27.27;18.53;;;;;;;-5.69;100.00;97628.66;5045092;28;24443;-73
2023/02/10 02:15:32;;;;;;;29.23;19.73;;;;;;;-5.60;100.00;97616.28;5039320;28;24471;-73
2023/02/10 02:18:08;;;;;;;25.15;18.20;;;;;;;-5.68;100.00;97612.69;5047153;28;24439;-73
2023/02/10 02:21:07;;;;;;;26.75;17.83;;;;;;;-5.87;100.00;97607.09;5044079;28;24840;-72
2023/02/10 02:23:59;;;;;;;23.67;18.23;;;;;;;-6.00;100.00;97601.69;5045647;28;24438;-73
2023/02/10 02:26:41;;;;;;;31.33;21.33;;;;;;;-5.96;100.00;97606.84;5039594;28;24431;-73
2023/02/10 02:29:31;;;;;;;35.90;19.73;;;;;;;-5.94;100.00;97606.88;5041925;28;24446;-72
2023/02/10 02:32:02;;;;;;;23.52;18.10;;;;;;;-6.10;100.00;97608.94;5043706;28;24431;-72
2023/02/10 02:34:34;;;;;;;25.88;19.90;;;;;;;-6.26;100.00;97618.50;5043793;28;25007;-75
2023/02/10 02:37:06;;;;;;;27.92;20.25;;;;;;;-6.17;100.00;97623.81;5043908;28;24479;-75
2023/02/10 02:39:33;;;;;;;28.38;19.50;;;;;;;-6.27;100.00;97622.66;5040744;28;24458;-75
2023/02/10 02:42:14;;;;;;;29.92;21.25;;;;;;;-6.17;100.00;97628.88;5041336;28;24444;-75
2023/02/10 02:44:41;;;;;;;33.75;22.42;;;;;;;-6.08;100.00;97626.66;5042925;28;24435;-75
2023/02/10 02:47:16;;;;;;;33.72;20.88;;;;;;;-6.10;100.00;97626.59;5038673;28;24435;-76
2023/02/10 02:49:49;;;;;;;26.33;19.52;;;;;;;-6.12;100.00;97629.88;5045491;28;24430;-75
2023/02/10 02:52:22;;;;;;;29.90;18.88;;;;;;;-6.30;100.00;97624.22;5046465;28;24809;-76
2023/02/10 02:54:58;;;;;;;34.53;19.52;;;;;;;-6.35;100.00;97619.03;5049378;28;24446;-75
2023/02/10 02:57:34;;;;;;;25.67;18.00;;;;;;;-6.27;100.00;97620.16;5045577;28;25015;-75
2023/02/10 03:00:06;;;;;;;27.15;18.52;;;;;;;-6.42;100.00;97607.91;5047566;28;24817;-73
2023/02/10 03:02:36;;;;;;;26.17;19.38;;;;;;;-6.40;100.00;97621.41;5044903;28;24442;-73
2023/02/10 03:05:02;;;;;;;30.63;20.33;;;;;;;-6.47;100.00;97623.69;5046411;28;24977;-73
2023/02/10 03:07:29;;;;;;;29.45;19.67;;;;;;;-6.47;100.00;97626.22;5044574;28;24431;-73
2023/02/10 03:09:55;;;;;;;33.80;21.90;;;;;;;-6.47;100.00;97622.03;5050969;28;24435;-75
2023/02/10 03:12:22;;;;;;;28.50;21.95;;;;;;;-6.30;100.00;97629.28;5051178;28;24522;-75
2023/02/10 03:14:48;;;;;;;31.80;20.80;;;;;;;-6.24;100.00;97624.44;5050982;28;24442;-75
2023/02/10 03:17:15;;;;;;;31.58;21.65;;;;;;;-6.27;100.00;97622.66;5051343;28;24466;-75
2023/02/10 03:19:43;;;;;;;34.70;22.17;;;;;;;-6.40;100.00;97623.09;5040847;28;24439;-75
2023/02/10 03:22:09;;;;;;;29.55;20.55;;;;;;;-6.41;100.00;97628.94;5047026;28;24434;-76
2023/02/10 03:24:36;;;;;;;29.00;17.90;;;;;;;-6.24;100.00;97632.00;5050863;28;24446;-75
2023/02/10 03:27:05;;;;;;;26.63;18.77;;;;;;;-6.35;100.00;97627.47;5050900;28;24475;-75
2023/02/10 03:29:31;;;;;;;27.90;18.43;;;;;;;-6.43;100.00;97618.78;5043842;28;24443;-76
2023/02/10 03:32:01;;;;;;;25.92;18.92;;;;;;;-6.33;100.00;97627.53;5041116;28;24446;-75
2023/02/10 03:34:27;;;;;;;27.63;18.00;;;;;;;-6.27;100.00;97631.91;5037774;28;24440;-75
2023/02/10 03:36:55;;;;;;;27.67;17.85;;;;;;;-6.19;100.00;97640.56;5041562;28;25004;-75
2023/02/10 03:39:22;;;;;;;27.00;18.00;;;;;;;-6.20;100.00;97643.91;5042896;28;24444;-75
2023/02/10 03:41:48;;;;;;;25.67;17.77;;;;;;;-6.39;100.00;97642.44;5044536;28;24562;-75
2023/02/10 03:44:15;;;;;;;27.83;19.60;;;;;;;-6.32;100.00;97641.84;5042333;28;24439;-75
2023/02/10 03:46:41;;;;;;;36.47;22.30;;;;;;;-6.29;100.00;97649.50;5046830;28;24438;-75
2023/02/10 03:49:08;;;;;;;36.65;21.33;;;;;;;-6.15;100.00;97648.31;5045089;28;24435;-76
2023/02/10 03:51:34;;;;;;;24.45;18.33;;;;;;;-6.13;100.00;97654.22;5044115;28;24442;-75
2023/02/10 03:54:02;;;;;;;26.33;18.80;;;;;;;-6.06;100.00;97651.91;5041340;28;24440;-76
2023/02/10 03:56:28;;;;;;;21.15;17.17;;;;;;;-6.17;100.00;97654.94;5054108;28;24470;-75
2023/02/10 03:58:55;;;;;;;28.90;19.10;;;;;;;-6.33;100.00;97660.31;5043007;28;24828;-75
2023/02/10 04:01:21;;;;;;;50.55;30.02;;;;;;;-6.45;100.00;97653.19;5051929;28;24440;-76
2023/02/10 04:03:48;;;;;;;26.75;20.33;;;;;;;-6.48;100.00;97660.66;5050632;28;24439;-75
2023/02/10 04:06:14;;;;;;;25.13;19.33;;;;;;;-6.46;100.00;97665.72;5050584;28;24793;-75
2023/02/10 04:08:41;;;;;;;28.67;18.83;;;;;;;-6.66;100.00;97660.03;5048288;28;24435;-76
2023/02/10 04:11:09;;;;;;;24.75;17.77;;;;;;;-6.65;100.00;97661.72;5045944;28;24438;-75
2023/02/10 04:13:35;;;;;;;23.10;18.42;;;;;;;-6.58;100.00;97653.56;5052193;28;24435;-76
2023/02/10 04:16:04;;;;;;;23.33;17.37;;;;;;;-6.36;100.00;97652.63;5048420;28;24562;-75
2023/02/10 04:18:31;;;;;;;25.42;16.95;;;;;;;-6.51;100.00;97652.97;5051872;28;24532;-76
2023/02/10 04:20:57;;;;;;;26.10;17.02;;;;;;;-6.60;100.00;97656.06;5044045;28;24442;-75
2023/02/10 04:23:24;;;;;;;23.15;16.95;;;;;;;-6.60;100.00;97658.56;5052836;28;24442;-75
2023/02/10 04:25:50;;;;;;;21.73;17.33;;;;;;;-6.54;100.00;97652.00;5048970;28;24426;-75
2023/02/10 04:28:18;;;;;;;25.88;17.58;;;;;;;-6.57;100.00;97655.28;5056890;28;24550;-76
2023/02/10 04:30:45;;;;;;;22.77;17.08;;;;;;;-6.50;100.00;97654.69;5038684;28;24440;-75
2023/02/10 04:33:11;;;;;;;25.23;17.42;;;;;;;-6.40;100.00;97656.72;5040688;28;24447;-73
2023/02/10 04:35:38;;;;;;;23.92;16.10;;;;;;;-6.36;100.00;97658.53;5039660;28;24447;-75
2023/02/10 04:38:04;;;;;;;25.27;17.50;;;;;;;-6.32;100.00;97659.50;5044838;28;24984;-75
2023/02/10 04:40:31;;;;;;;28.80;17.65;;;;;;;-6.25;100.00;97658.88;5039374;28;24991;-75
2023/02/10 04:42:57;;;;;;;22.60;16.85;;;;;;;-6.24;100.00;97660.59;5043016;28;24466;-75
2023/02/10 04:45:25;;;;;;;25.50;18.10;;;;;;;-6.36;100.00;97661.06;5040967;28;24442;-76
2023/02/10 04:47:51;;;;;;;31.23;18.67;;;;;;;-6.28;100.00;97662.97;5046727;28;24447;-75
2023/02/10 04:50:18;;;;;;;25.08;18.40;;;;;;;-6.48;100.00;97667.34;5041283;28;24441;-75
2023/02/10 04:52:45;;;;;;;24.47;18.77;;;;;;;-6.35;100.00;97662.75;5041127;28;24427;-75
2023/02/10 04:55:11;;;;;;;24.77;19.08;;;;;;;-6.22;100.00;97668.22;5046976;28;24828;-75
2023/02/10 04:57:38;;;;;;;25.83;17.42;;;;;;;-6.32;100.00;97664.53;5043599;28;24444;-75
2023/02/10 05:00:05;;;;;;;26.30;18.25;;;;;;;-6.39;100.00;97660.09;5041819;28;24438;-75
2023/02/10 05:02:33;;;;;;;28.77;18.60;;;;;;;-6.63;100.00;97661.00;5049214;28;24511;-75
2023/02/10 05:05:00;;;;;;;31.40;19.38;;;;;;;-6.70;100.00;97660.72;5046772;28;24477;-75
2023/02/10 05:07:26;;;;;;;31.50;18.83;;;;;;;-6.67;100.00;97661.69;5051234;28;24436;-75
2023/02/10 05:09:53;;;;;;;29.88;19.08;;;;;;;-6.59;100.00;97664.47;5042845;28;24435;-75
2023/02/10 05:12:19;;;;;;;29.45;19.40;;;;;;;-6.58;100.00;97667.03;5047016;28;24438;-75
2023/02/10 05:14:46;;;;;;;28.93;19.47;;;;;;;-6.68;100.00;97675.06;5041592;28;24434;-75
2023/02/10 05:17:12;;;;;;;25.45;19.13;;;;;;;-6.70;100.00;97679.22;5047971;28;24466;-75
2023/02/10 05:19:40;;;;;;;26.85;18.42;;;;;;;-6.58;100.00;97679.63;5040638;28;24447;-75
2023/02/10 05:22:06;;;;;;;28.67;19.02;;;;;;;-6.48;100.00;97687.53;5043093;28;24448;-75
2023/02/10 05:24:33;;;;;;;26.75;19.10;;;;;;;-6.49;100.00;97688.31;5053279;28;24427;-75
2023/02/10 05:26:59;;;;;;;26.00;18.95;;;;;;;-6.49;100.00;97683.25;5049309;28;24446;-73
2023/02/10 05:29:26;;;;;;;31.80;19.30;;;;;;;-6.42;100.00;97681.00;5044988;28;24447;-73
2023/02/10 05:31:52;;;;;;;27.27;19.60;;;;;;;-6.64;100.00;97679.41;5039506;28;24430;-72
2023/02/10 05:34:19;;;;;;;32.92;21.17;;;;;;;-6.67;100.00;97681.00;5037888;28;25043;-74
2023/02/10 05:36:47;;;;;;;41.10;22.95;;;;;;;-6.66;100.00;97688.59;5039010;28;25005;-73
2023/02/10 05:39:25;;;;;;;44.17;23.95;;;;;;;-6.66;100.00;97696.16;5043998;28;24450;-75
2023/02/10 05:41:53;;;;;;;33.53;22.30;;;;;;;-6.63;100.00;97693.75;5042795;28;24520;-76
2023/02/10 05:44:20;;;;;;;31.52;22.40;;;;;;;-6.60;100.00;97698.91;5046246;28;24435;-75
2023/02/10 05:46:47;;;;;;;32.13;21.80;;;;;;;-6.66;100.00;97695.31;5040877;28;24447;-76
2023/02/10 05:49:13;;;;;;;34.22;21.25;;;;;;;-6.62;100.00;97700.50;5041971;28;24451;-76
2023/02/10 05:51:40;;;;;;;35.17;21.20;;;;;;;-6.58;100.00;97694.75;5048433;28;24439;-76
2023/02/10 05:54:08;;;;;;;29.05;19.90;;;;;;;-6.57;100.00;97698.97;5053096;28;24442;-76
2023/02/10 05:56:35;;;;;;;27.13;19.95;;;;;;;-6.54;100.00;97702.44;5049282;28;24463;-76
2023/02/10 05:59:01;;;;;;;31.05;19.63;;;;;;;-6.74;100.00;97707.63;5049388;28;24467;-77
2023/02/10 06:01:28;;;;;;;23.02;17.05;;;;;;;-6.65;100.00;97710.47;5047824;28;24466;-76
2023/02/10 06:03:55;;;;;;;24.15;18.58;;;;;;;-6.53;100.00;97716.75;5049124;28;24443;-75
2023/02/10 06:06:21;;;;;;;36.45;21.60;;;;;;;-6.43;100.00;97713.75;5045848;28;24439;-75
2023/02/10 06:08:48;;;;;;;35.10;22.63;;;;;;;-6.53;100.00;97715.06;5037520;28;24467;-75
2023/02/10 06:11:16;;;;;;;32.35;21.90;;;;;;;-6.67;100.00;97719.66;5037642;28;24435;-76
2023/02/10 06:13:43;;;;;;;37.72;24.25;;;;;;;-6.75;100.00;97718.50;5045992;28;24979;-76
2023/02/10 06:16:11;;;;;;;37.30;21.77;;;;;;;-6.81;100.00;97730.88;5037821;28;24472;-75
2023/02/10 06:18:37;;;;;;;39.70;22.92;;;;;;;-6.80;100.00;97730.06;5048202;28;24437;-76
2023/02/10 06:21:04;;;;;;;40.33;22.58;;;;;;;-6.83;100.00;97730.81;5037970;28;24435;-76
2023/02/10 06:23:30;;;;;;;37.70;22.77;;;;;;;-6.78;100.00;97727.63;5049679;28;24439;-76
2023/02/10 06:25:58;;;;;;;32.65;22.55;;;;;;;-6.90;100.00;97733.06;5043073;28;24819;-76
2023/02/10 06:28:27;;;;;;;29.58;22.50;;;;;;;-6.86;100.00;97734.88;5052970;28;25003;-76
2023/02/10 06:30:54;;;;;;;37.33;22.25;;;;;;;-6.79;100.00;97736.81;5041913;28;24441;-76
2023/02/10 06:33:21;;;;;;;27.63;20.48;;;;;;;-6.81;100.00;97743.50;5035738;28;24443;-75
2023/02/10 06:35:48;;;;;;;32.90;20.85;;;;;;;-6.85;100.00;97746.69;5043169;28;24438;-77
2023/02/10 06:38:14;;;;;;;32.17;21.10;;;;;;;-6.95;100.00;97740.44;5043852;28;24451;-74
2023/02/10 06:40:41;;;;;;;30.35;21.30;;;;;;;-6.93;100.00;97745.56;5045550;28;24447;-77
2023/02/10 06:43:07;;;;;;;33.97;21.60;;;;;;;-7.06;100.00;97746.75;5048299;28;24994;-77
2023/02/10 06:45:35;;;;;;;31.55;20.83;;;;;;;-7.04;100.00;97744.28;5046026;28;25003;-76
2023/02/10 06:48:02;;;;;;;31.58;21.45;;;;;;;-7.04;100.00;97750.19;5048624;28;24434;-76
2023/02/10 06:50:28;;;;;;;31.60;21.10;;;;;;;-7.04;100.00;97750.19;5049636;28;24813;-76
2023/02/10 06:52:55;;;;;;;26.90;19.85;;;;;;;-6.98;100.00;97750.41;5047587;28;24506;-76
2023/02/10 06:55:21;;;;;;;28.45;19.45;;;;;;;-7.01;100.00;97754.47;5047812;28;24435;-78
2023/02/10 06:57:48;;;;;;;33.75;20.95;;;;;;;-7.02;100.00;97758.66;5046158;28;24459;-76
2023/02/10 07:00:15;;;;;;;34.75;20.27;;;;;;;-6.96;100.00;97758.91;5048310;28;24435;-75
2023/02/10 07:02:43;;;;;;;29.15;19.65;;;;;;;-6.90;100.00;97755.72;5047507;28;24431;-76
2023/02/10 07:05:11;;;;;;;32.30;20.70;;;;;;;-6.85;100.00;97754.25;5049246;28;24837;-76
2023/02/10 07:07:38;;;;;;;27.83;19.00;;;;;;;-6.75;100.00;97763.00;5047798;28;25011;-76
2023/02/10 07:10:06;;;;;;;26.50;18.98;;;;;;;-6.87;100.00;97760.88;5051545;28;24446;-77
2023/02/10 07:12:32;;;;;;;27.83;18.58;;;;;;;-6.95;100.00;97767.31;5052540;28;24446;-76
2023/02/10 07:14:59;;;;;;;26.08;19.17;;;;;;;-6.88;100.00;97762.56;5045765;28;24454;-77
2023/02/10 07:17:25;;;;;;;27.48;18.35;;;;;;;-6.73;100.00;97761.41;5046490;28;24467;-77
2023/02/10 07:19:53;;;;;;;27.38;19.40;;;;;;;-6.76;100.00;97756.25;5045697;28;25000;-78
2023/02/10 07:22:20;;;;;;;25.83;19.17;;;;;;;-6.60;100.00;97763.53;5052656;28;24435;-77
2023/02/10 07:24:47;;;;;;;26.00;18.45;;;;;;;-6.55;100.00;97764.59;5045865;28;24485;-77
2023/02/10 07:27:13;;;;;;;28.67;17.55;;;;;;;-6.38;100.00;97762.66;5050631;28;24446;-77
2023/02/10 07:29:39;;;;;;;25.25;18.30;;;;;;;-6.23;100.00;97763.22;5055468;28;24997;-76
2023/02/10 07:32:06;;;;;;;27.52;18.30;;;;;;;-6.10;100.00;97767.00;5040537;28;24821;-77
2023/02/10 07:34:33;;;;;;;25.30;18.30;;;;;;;-5.85;100.00;97769.50;5038671;28;24446;-76
2023/02/10 07:37:02;;;;;;;26.85;19.63;;;;;;;-5.64;100.00;97771.00;5040710;28;25337;-75
2023/02/10 07:39:28;;;;;;;26.27;20.83;;;;;;;-5.49;100.00;97774.00;5045160;28;24436;-78
2023/02/10 07:41:55;;;;;;;28.63;22.70;;;;;;;-5.19;100.00;97773.25;5050377;28;24773;-76
2023/02/10 07:44:21;;;;;;;28.08;21.15;;;;;;;-5.07;100.00;97776.19;5044213;28;24434;-77
2023/02/10 07:46:48;;;;;;;27.25;20.17;;;;;;;-4.91;100.00;97772.44;5042041;28;24435;-77
2023/02/10 07:49:14;;;;;;;30.08;21.40;;;;;;;-4.70;100.00;97775.59;5043336;28;24436;-77
2023/02/10 07:51:42;;;;;;;28.85;22.05;;;;;;;-4.47;100.00;97768.66;5040639;28;24785;-78
2023/02/10 07:54:10;;;;;;;26.38;19.17;;;;;;;-4.65;100.00;97768.97;5041085;28;24448;-78
2023/02/10 07:56:36;;;;;;;23.40;18.13;;;;;;;-4.44;100.00;97765.34;5051015;28;24466;-77
2023/02/10 07:59:03;;;;;;;30.67;24.23;;;;;;;-4.27;100.00;97760.75;5048342;28;25049;-77
2023/02/10 08:01:30;;;;;;;28.27;21.73;;;;;;;-4.06;100.00;97765.53;5052585;28;24443;-78
2023/02/10 08:03:57;;;;;;;31.10;21.05;;;;;;;-4.45;100.00;97756.91;5046238;28;24442;-75
2023/02/10 08:06:26;;;;;;;33.95;21.85;;;;;;;-4.34;100.00;97763.91;5042904;28;24546;-78
2023/02/10 08:08:52;;;;;;;28.85;22.00;;;;;;;-4.19;100.00;97764.34;5039945;28;24436;-75
2023/02/10 08:11:20;;;;;;;29.90;21.23;;;;;;;-4.44;100.00;97770.41;5039473;28;24905;-75
2023/02/10 08:13:47;;;;;;;29.33;20.92;;;;;;;-4.51;100.00;97766.00;5041849;28;24448;-74
2023/02/10 08:16:13;;;;;;;28.58;20.73;;;;;;;-4.35;100.00;97767.28;5048776;28;24435;-74
2023/02/10 08:18:40;;;;;;;29.80;20.52;;;;;;;-4.34;100.00;97776.56;5046409;28;24462;-74
2023/02/10 08:21:07;;;;;;;35.92;22.40;;;;;;;-4.09;100.00;97775.56;5050857;28;24446;-74
2023/02/10 08:23:34;;;;;;;31.73;22.35;;;;;;;-4.13;100.00;97790.66;5045969;28;24501;-75
2023/02/10 08:26:04;;;;;;;28.40;22.58;;;;;;;-3.99;100.00;97790.19;5044582;28;24448;-75
2023/02/10 08:28:32;;;;;;;34.08;23.55;;;;;;;-4.20;100.00;97791.31;5047020;28;24424;-74
2023/02/10 08:30:59;;;;;;;26.65;19.92;;;;;;;-3.97;100.00;97793.59;5038778;28;24467;-74
2023/02/10 08:33:26;;;;;;;24.83;18.85;;;;;;;-3.94;100.00;97796.22;5037879;28;24976;-75
2023/02/10 08:35:52;;;;;;;29.20;18.75;;;;;;;-3.58;100.00;97793.78;5040340;28;24440;-73
2023/02/10 08:38:19;;;;;;;22.60;18.38;;;;;;;-3.85;100.00;97795.63;5044314;28;24474;-72
2023/02/10 08:40:46;;;;;;;23.30;18.23;;;;;;;-3.56;100.00;97791.25;5042811;28;24439;-73
2023/02/10 08:43:12;;;;;;;27.08;17.70;;;;;;;-3.79;100.00;97800.81;5043473;28;24825;-74
2023/02/10 08:45:40;;;;;;;27.50;18.47;;;;;;;-3.66;100.00;97792.72;5039001;28;24802;-74
2023/02/10 08:48:07;;;;;;;28.07;19.00;;;;;;;-3.77;100.00;97791.59;5045229;28;24459;-76
2023/02/10 08:50:33;;;;;;;25.23;18.48;;;;;;;-3.33;100.00;97795.25;5043820;28;24436;-75
2023/02/10 08:53:00;;;;;;;26.02;18.92;;;;;;;-3.17;100.00;97796.44;5042411;28;24427;-75
2023/02/10 08:55:26;;;;;;;28.50;19.38;;;;;;;-3.16;100.00;97801.53;5041072;28;24446;-75
2023/02/10 08:57:53;;;;;;;29.67;20.85;;;;;;;-3.00;100.00;97791.78;5046363;28;24554;-75
2023/02/10 09:00:20;;;;;;;35.33;23.03;;;;;;;-2.95;100.00;97792.72;5051958;28;24447;-75
2023/02/10 09:02:49;;;;;;;27.65;21.27;;;;;;;-2.68;100.00;97790.78;5046728;28;24810;-76
2023/02/10 09:05:15;;;;;;;33.15;24.50;;;;;;;-2.47;100.00;97787.00;5047004;28;24450;-76
2023/02/10 09:07:42;;;;;;;41.10;27.40;;;;;;;-2.26;100.00;97787.44;5043320;28;25007;-74
2023/02/10 09:10:11;;;;;;;27.37;21.67;;;;;;;-2.20;100.00;97785.00;5049258;28;24530;-75
2023/02/10 09:12:37;;;;;;;31.08;22.50;;;;;;;-2.32;100.00;97784.78;5049534;28;24435;-76
2023/02/10 09:15:04;;;;;;;30.13;22.23;;;;;;;-2.21;100.00;97783.31;5046914;28;24435;-75
2023/02/10 09:17:31;;;;;;;28.73;21.65;;;;;;;-2.03;100.00;97787.03;5044510;28;24466;-75
2023/02/10 09:19:59;;;;;;;29.33;21.33;;;;;;;-1.81;100.00;97793.38;5048015;28;24444;-76
2023/02/10 09:22:25;;;;;;;34.95;22.67;;;;;;;-1.62;100.00;97784.38;5050112;28;24441;-76
2023/02/10 09:24:52;;;;;;;31.75;22.30;;;;;;;-1.66;100.00;97791.09;5044467;28;24992;-76
2023/02/10 09:27:19;;;;;;;29.52;21.08;;;;;;;-1.43;100.00;97800.78;5047174;28;24527;-76
2023/02/10 09:29:46;;;;;;;34.80;24.50;;;;;;;-1.20;100.00;97799.47;5047166;28;25154;-76
2023/02/10 09:32:12;;;;;;;29.98;21.83;;;;;;;-1.12;100.00;97797.03;5046591;28;24998;-75
2023/02/10 09:34:39;;;;;;;32.60;22.30;;;;;;;-0.99;100.00;97791.31;5044009;28;24447;-74
2023/02/10 09:37:08;;;;;;;30.90;21.25;;;;;;;-0.69;100.00;97800.22;5044875;28;24464;-75
2023/02/10 09:39:35;;;;;;;30.88;23.23;;;;;;;-0.47;100.00;97789.50;5044607;28;24442;-75
2023/02/10 09:42:08;;;;;;;30.63;22.98;;;;;;;-0.38;100.00;97781.13;5038973;28;24475;-73
2023/02/10 09:44:38;;;;;;;27.10;20.80;;;;;;;-0.18;100.00;97794.09;5046948;28;24423;-73
2023/02/10 09:47:24;;;;;;;33.08;21.48;;;;;;;-0.21;99.38;97792.38;5041918;28;24439;-73
2023/02/10 09:50:04;;;;;;;30.08;21.35;;;;;;;-0.05;99.78;97795.94;5041796;28;24526;-73
2023/02/10 09:52:42;;;;;;;30.85;21.50;;;;;;;0.20;96.36;97800.47;5039036;28;24431;-74
2023/02/10 09:55:15;;;;;;;30.05;21.08;;;;;;;0.14;96.41;97794.44;5040780;28;24439;-73
2023/02/10 09:57:44;;;;;;;39.13;21.52;;;;;;;0.80;94.79;97801.03;5038086;28;24471;-73
2023/02/10 10:00:24;;;;;;;29.58;21.10;;;;;;;0.95;91.09;97792.63;5048724;28;24438;-73
2023/02/10 10:02:54;;;;;;;30.50;20.57;;;;;;;1.07;89.53;97799.53;5041717;28;24437;-73
2023/02/10 10:05:32;;;;;;;28.55;20.27;;;;;;;1.54;88.72;97794.72;5045299;28;24517;-74
2023/02/10 10:08:01;;;;;;;29.17;20.77;;;;;;;1.80;86.35;97792.28;5046397;28;24443;-74
2023/02/10 10:10:33;;;;;;;28.05;20.13;;;;;;;1.76;86.09;97790.56;5047711;28;24443;-74
2023/02/10 10:12:59;;;;;;;28.60;20.02;;;;;;;2.07;86.24;97791.50;5051852;28;24437;-74
2023/02/10 10:15:37;;;;;;;25.38;19.15;;;;;;;2.45;83.57;97788.22;5050087;28;24514;-74
2023/02/10 10:18:15;;;;;;;23.58;19.13;;;;;;;2.42;83.55;97795.88;5051083;28;24462;-74
2023/02/10 10:20:51;;;;;;;27.85;18.90;;;;;;;2.25;82.49;97794.97;5044264;28;24423;-74
2023/02/10 10:23:38;;;;;;;29.55;19.98;;;;;;;1.86;83.10;97797.41;5043189;28;25074;-74
2023/02/10 10:26:19;;;;;;;25.00;19.23;;;;;;;1.85;83.36;97792.28;5041314;28;24499;-74
2023/02/10 10:29:00;;;;;;;26.95;19.02;;;;;;;1.69;81.90;97792.22;5047148;28;24428;-74
2023/02/10 10:31:30;;;;;;;28.67;19.73;;;;;;;1.80;81.70;97793.97;5040045;28;24431;-74
2023/02/10 10:34:03;;;;;;;25.05;18.58;;;;;;;1.70;83.71;97795.63;5043636;28;24478;-74
2023/02/10 10:36:34;;;;;;;25.80;18.38;;;;;;;1.80;81.49;97793.97;5040082;28;24446;-74
2023/02/10 10:39:12;;;;;;;25.50;19.52;;;;;;;1.87;80.50;97795.72;5043639;28;25047;-74
2023/02/10 10:41:39;;;;;;;27.65;18.25;;;;;;;1.92;79.49;97794.88;5039380;28;24442;-74
2023/02/10 10:44:06;;;;;;;25.40;18.75;;;;;;;1.91;76.94;97802.53;5038756;28;24467;-74
2023/02/10 10:46:39;;;;;;;21.25;17.65;;;;;;;2.18;73.93;97794.94;5045429;28;24462;-74
2023/02/10 10:49:07;;;;;;;21.73;17.00;;;;;;;2.77;72.70;97801.03;5042009;28;26091;-74
2023/02/10 10:51:34;;;;;;;22.10;16.37;;;;;;;3.03;71.54;97777.97;5037069;28;24827;-74
2023/02/10 10:54:03;;;;;;;25.17;17.70;;;;;;;3.19;71.02;97777.97;5038096;28;24439;-74
2023/02/10 10:56:35;;;;;;;23.20;17.20;;;;;;;3.34;71.50;97770.28;5043734;28;24434;-75
2023/02/10 10:59:04;;;;;;;21.25;17.05;;;;;;;3.62;68.37;97777.00;5045776;28;24819;-75
2023/02/10 11:01:36;;;;;;;23.80;16.97;;;;;;;3.86;69.42;97778.63;5049590;28;24488;-74
2023/02/10 11:04:07;;;;;;;22.67;17.45;;;;;;;3.30;67.62;97761.75;5042877;28;24519;-74
2023/02/10 11:06:37;;;;;;;23.75;17.40;;;;;;;3.17;69.86;97774.56;5040073;28;24436;-74
2023/02/10 11:09:14;;;;;;;27.42;16.13;;;;;;;3.25;65.96;97766.00;5041191;28;24439;-75
2023/02/10 11:11:43;;;;;;;21.02;16.38;;;;;;;3.67;65.92;97766.75;5049953;28;24825;-74
2023/02/10 11:14:15;;;;;;;24.48;15.98;;;;;;;3.38;67.15;97759.16;5045476;28;24448;-75
2023/02/10 11:16:45;;;;;;;23.33;16.13;;;;;;;3.75;62.36;97765.00;5048053;28;24517;-75
2023/02/10 11:19:19;;;;;;;23.75;15.23;;;;;;;3.83;62.25;97768.41;5050934;28;24447;-75